Mora, New Mexico
Current Conditions -  °F | °C
As of 10:53 PM on Saturday 22 Nov 2014 (Local Time) from KLVS Reporting Station
Clear Clear  
Wind Chill: 43°   Ceiling: Unl
Heat Index: 43°   Visibility: 10mi
Dew Point: 19°   Wind: 0mph
Humidity: 38%   Direction: NA
Pressure: 29.72"   Gusts: NA
Location:  35.97°N, 105.33°W
Report Text: KLVS 230553Z AUTO 00000KT 10SM CLR 06/M07 A2972 RMK AO2 PK WND 31028/0521 SLP001 T00611072 10094 20050 58001
Loading
Personal Weather Stations






























Interactive Weather Map New forecast layout! Learn more

10-Day Weather Forecast

Advertisements
Track Severe Weather on mobile